sensor_id;sensor_type;location;lat;lon;timestamp;P1;durP1;ratioP1;P2;durP2;ratioP2
80175;SDS011;69501;42.124;24.722;2023-05-17T00:02:01;6.55;;;3.88;;
80175;SDS011;69501;42.124;24.722;2023-05-17T00:04:26;4.57;;;3.33;;
80175;SDS011;69501;42.124;24.722;2023-05-17T00:06:52;6.40;;;3.53;;
80175;SDS011;69501;42.124;24.722;2023-05-17T00:09:18;5.28;;;4.22;;
80175;SDS011;69501;42.124;24.722;2023-05-17T00:11:43;5.05;;;3.20;;
80175;SDS011;69501;42.124;24.722;2023-05-17T00:14:09;4.43;;;4.00;;
80175;SDS011;69501;42.124;24.722;2023-05-17T00:16:35;6.97;;;4.97;;
80175;SDS011;69501;42.124;24.722;2023-05-17T00:19:01;7.18;;;4.95;;
80175;SDS011;69501;42.124;24.722;2023-05-17T00:21:27;6.80;;;3.97;;
80175;SDS011;69501;42.124;24.722;2023-05-17T00:23:53;4.63;;;3.42;;
80175;SDS011;69501;42.124;24.722;2023-05-17T00:26:18;4.57;;;3.30;;
80175;SDS011;69501;42.124;24.722;2023-05-17T00:28:44;6.90;;;3.03;;
80175;SDS011;69501;42.124;24.722;2023-05-17T00:31:10;4.25;;;3.15;;
80175;SDS011;69501;42.124;24.722;2023-05-17T00:33:35;5.15;;;3.10;;
80175;SDS011;69501;42.124;24.722;2023-05-17T00:36:01;4.88;;;3.22;;
80175;SDS011;69501;42.124;24.722;2023-05-17T00:38:27;4.13;;;3.42;;
80175;SDS011;69501;42.124;24.722;2023-05-17T00:40:53;7.18;;;3.95;;
80175;SDS011;69501;42.124;24.722;2023-05-17T00:43:19;7.30;;;4.15;;
80175;SDS011;69501;42.124;24.722;2023-05-17T00:45:44;6.25;;;3.60;;
80175;SDS011;69501;42.124;24.722;2023-05-17T00:48:12;4.45;;;4.05;;
80175;SDS011;69501;42.124;24.722;2023-05-17T00:50:38;9.00;;;4.22;;
80175;SDS011;69501;42.124;24.722;2023-05-17T00:53:05;7.95;;;3.97;;
80175;SDS011;69501;42.124;24.722;2023-05-17T00:55:30;5.07;;;4.25;;
80175;SDS011;69501;42.124;24.722;2023-05-17T00:57:57;4.45;;;3.55;;
80175;SDS011;69501;42.124;24.722;2023-05-17T01:00:23;8.00;;;3.90;;
80175;SDS011;69501;42.124;24.722;2023-05-17T01:02:49;5.95;;;4.38;;
80175;SDS011;69501;42.124;24.722;2023-05-17T01:05:15;6.78;;;4.63;;
80175;SDS011;69501;42.124;24.722;2023-05-17T01:07:41;5.28;;;4.55;;
80175;SDS011;69501;42.124;24.722;2023-05-17T01:10:06;5.75;;;5.10;;
80175;SDS011;69501;42.124;24.722;2023-05-17T01:15:33;7.13;;;5.25;;
80175;SDS011;69501;42.124;24.722;2023-05-17T01:20:54;8.38;;;5.03;;
80175;SDS011;69501;42.124;24.722;2023-05-17T01:26:16;10.23;;;6.03;;
80175;SDS011;69501;42.124;24.722;2023-05-17T01:29:03;9.23;;;5.45;;
80175;SDS011;69501;42.124;24.722;2023-05-17T01:31:30;6.55;;;5.95;;
80175;SDS011;69501;42.124;24.722;2023-05-17T01:33:57;6.88;;;6.07;;
80175;SDS011;69501;42.124;24.722;2023-05-17T01:36:22;7.20;;;6.40;;
80175;SDS011;69501;42.124;24.722;2023-05-17T01:38:50;7.20;;;5.60;;
80175;SDS011;69501;42.124;24.722;2023-05-17T01:46:45;6.50;;;4.43;;
80175;SDS011;69501;42.124;24.722;2023-05-17T01:49:20;5.65;;;4.40;;
80175;SDS011;69501;42.124;24.722;2023-05-17T01:51:54;6.45;;;4.53;;
80175;SDS011;69501;42.124;24.722;2023-05-17T01:54:52;5.40;;;4.53;;
80175;SDS011;69501;42.124;24.722;2023-05-17T01:57:27;5.07;;;3.95;;
80175;SDS011;69501;42.124;24.722;2023-05-17T01:59:56;3.92;;;3.55;;
80175;SDS011;69501;42.124;24.722;2023-05-17T02:02:24;5.35;;;4.13;;
80175;SDS011;69501;42.124;24.722;2023-05-17T02:04:50;4.55;;;4.13;;
80175;SDS011;69501;42.124;24.722;2023-05-17T02:07:15;4.25;;;3.72;;
80175;SDS011;69501;42.124;24.722;2023-05-17T02:09:41;5.68;;;4.65;;
80175;SDS011;69501;42.124;24.722;2023-05-17T02:12:07;5.82;;;3.78;;
80175;SDS011;69501;42.124;24.722;2023-05-17T02:14:32;6.50;;;4.28;;
80175;SDS011;69501;42.124;24.722;2023-05-17T02:16:58;5.38;;;4.75;;
80175;SDS011;69501;42.124;24.722;2023-05-17T02:19:24;6.53;;;4.10;;
80175;SDS011;69501;42.124;24.722;2023-05-17T02:21:49;7.43;;;4.70;;
80175;SDS011;69501;42.124;24.722;2023-05-17T02:24:15;4.97;;;4.10;;
80175;SDS011;69501;42.124;24.722;2023-05-17T02:26:40;6.07;;;4.07;;
80175;SDS011;69501;42.124;24.722;2023-05-17T02:29:07;6.65;;;4.80;;
80175;SDS011;69501;42.124;24.722;2023-05-17T02:31:34;9.98;;;4.65;;
80175;SDS011;69501;42.124;24.722;2023-05-17T02:34:00;7.97;;;4.47;;
80175;SDS011;69501;42.124;24.722;2023-05-17T02:36:26;5.97;;;4.45;;
80175;SDS011;69501;42.124;24.722;2023-05-17T02:38:52;5.63;;;4.55;;
80175;SDS011;69501;42.124;24.722;2023-05-17T02:41:17;6.40;;;5.28;;
80175;SDS011;69501;42.124;24.722;2023-05-17T02:43:43;7.07;;;5.03;;
80175;SDS011;69501;42.124;24.722;2023-05-17T02:46:09;8.52;;;5.22;;
80175;SDS011;69501;42.124;24.722;2023-05-17T02:48:35;5.65;;;5.00;;
80175;SDS011;69501;42.124;24.722;2023-05-17T02:51:00;7.95;;;5.10;;
80175;SDS011;69501;42.124;24.722;2023-05-17T02:53:26;5.47;;;4.97;;
80175;SDS011;69501;42.124;24.722;2023-05-17T02:55:51;5.18;;;4.68;;
80175;SDS011;69501;42.124;24.722;2023-05-17T02:58:21;11.07;;;5.30;;
80175;SDS011;69501;42.124;24.722;2023-05-17T03:00:50;7.55;;;5.47;;
80175;SDS011;69501;42.124;24.722;2023-05-17T03:03:15;7.57;;;5.30;;
80175;SDS011;69501;42.124;24.722;2023-05-17T03:05:41;9.40;;;5.70;;
80175;SDS011;69501;42.124;24.722;2023-05-17T03:08:07;7.85;;;7.05;;
80175;SDS011;69501;42.124;24.722;2023-05-17T03:10:33;9.80;;;7.22;;
80175;SDS011;69501;42.124;24.722;2023-05-17T03:12:59;7.53;;;6.07;;
80175;SDS011;69501;42.124;24.722;2023-05-17T03:15:25;9.30;;;6.20;;
80175;SDS011;69501;42.124;24.722;2023-05-17T03:17:53;9.85;;;6.03;;
80175;SDS011;69501;42.124;24.722;2023-05-17T03:20:20;9.32;;;5.25;;
80175;SDS011;69501;42.124;24.722;2023-05-17T03:22:46;5.85;;;5.28;;
80175;SDS011;69501;42.124;24.722;2023-05-17T03:25:12;6.45;;;4.20;;
80175;SDS011;69501;42.124;24.722;2023-05-17T03:27:38;6.70;;;5.00;;
80175;SDS011;69501;42.124;24.722;2023-05-17T03:30:03;7.50;;;5.78;;
80175;SDS011;69501;42.124;24.722;2023-05-17T03:32:30;6.68;;;4.80;;
80175;SDS011;69501;42.124;24.722;2023-05-17T03:34:55;6.00;;;4.25;;
80175;SDS011;69501;42.124;24.722;2023-05-17T03:37:21;8.05;;;4.63;;
80175;SDS011;69501;42.124;24.722;2023-05-17T03:39:47;6.22;;;5.18;;
80175;SDS011;69501;42.124;24.722;2023-05-17T03:42:12;6.82;;;5.03;;
80175;SDS011;69501;42.124;24.722;2023-05-17T03:44:39;6.10;;;4.68;;
80175;SDS011;69501;42.124;24.722;2023-05-17T03:47:05;9.13;;;5.10;;
80175;SDS011;69501;42.124;24.722;2023-05-17T03:49:31;8.48;;;6.18;;
80175;SDS011;69501;42.124;24.722;2023-05-17T03:51:57;8.13;;;5.93;;
80175;SDS011;69501;42.124;24.722;2023-05-17T03:54:23;10.00;;;7.03;;
80175;SDS011;69501;42.124;24.722;2023-05-17T03:56:48;6.68;;;5.97;;
80175;SDS011;69501;42.124;24.722;2023-05-17T03:59:14;6.95;;;5.90;;
80175;SDS011;69501;42.124;24.722;2023-05-17T04:01:41;7.35;;;5.80;;
80175;SDS011;69501;42.124;24.722;2023-05-17T04:04:07;8.23;;;5.78;;
80175;SDS011;69501;42.124;24.722;2023-05-17T04:06:33;7.65;;;6.43;;
80175;SDS011;69501;42.124;24.722;2023-05-17T04:08:59;8.68;;;5.93;;
80175;SDS011;69501;42.124;24.722;2023-05-17T04:11:26;7.95;;;5.22;;
80175;SDS011;69501;42.124;24.722;2023-05-17T04:13:52;15.23;;;10.73;;
80175;SDS011;69501;42.124;24.722;2023-05-17T04:16:19;9.13;;;7.95;;
80175;SDS011;69501;42.124;24.722;2023-05-17T04:18:44;12.60;;;7.65;;
80175;SDS011;69501;42.124;24.722;2023-05-17T04:21:11;8.93;;;6.78;;
80175;SDS011;69501;42.124;24.722;2023-05-17T04:23:36;9.25;;;6.78;;
80175;SDS011;69501;42.124;24.722;2023-05-17T04:26:02;12.45;;;6.80;;
80175;SDS011;69501;42.124;24.722;2023-05-17T04:28:30;9.73;;;6.80;;
80175;SDS011;69501;42.124;24.722;2023-05-17T04:30:56;9.15;;;6.03;;
80175;SDS011;69501;42.124;24.722;2023-05-17T04:33:22;7.05;;;6.32;;
80175;SDS011;69501;42.124;24.722;2023-05-17T04:35:49;7.95;;;5.72;;
80175;SDS011;69501;42.124;24.722;2023-05-17T04:38:15;15.55;;;12.88;;
80175;SDS011;69501;42.124;24.722;2023-05-17T04:40:41;23.55;;;19.02;;
80175;SDS011;69501;42.124;24.722;2023-05-17T04:43:07;33.53;;;21.45;;
80175;SDS011;69501;42.124;24.722;2023-05-17T04:45:32;25.50;;;20.45;;
80175;SDS011;69501;42.124;24.722;2023-05-17T04:47:58;27.92;;;18.45;;
80175;SDS011;69501;42.124;24.722;2023-05-17T04:50:24;17.70;;;14.85;;
80175;SDS011;69501;42.124;24.722;2023-05-17T04:52:50;18.60;;;12.23;;
80175;SDS011;69501;42.124;24.722;2023-05-17T04:55:15;13.85;;;9.82;;
80175;SDS011;69501;42.124;24.722;2023-05-17T04:57:41;9.35;;;7.82;;
80175;SDS011;69501;42.124;24.722;2023-05-17T05:00:07;9.35;;;8.20;;
80175;SDS011;69501;42.124;24.722;2023-05-17T05:02:36;9.90;;;6.95;;
80175;SDS011;69501;42.124;24.722;2023-05-17T05:05:02;8.50;;;7.60;;
80175;SDS011;69501;42.124;24.722;2023-05-17T05:07:29;9.02;;;6.68;;
80175;SDS011;69501;42.124;24.722;2023-05-17T05:09:55;10.60;;;6.95;;
80175;SDS011;69501;42.124;24.722;2023-05-17T05:12:21;7.65;;;6.40;;
80175;SDS011;69501;42.124;24.722;2023-05-17T05:14:46;7.95;;;7.25;;
80175;SDS011;69501;42.124;24.722;2023-05-17T05:17:12;7.55;;;6.85;;
80175;SDS011;69501;42.124;24.722;2023-05-17T05:19:38;11.00;;;7.00;;
80175;SDS011;69501;42.124;24.722;2023-05-17T05:22:03;7.88;;;6.82;;
80175;SDS011;69501;42.124;24.722;2023-05-17T05:24:29;11.13;;;7.15;;
80175;SDS011;69501;42.124;24.722;2023-05-17T05:26:55;13.73;;;7.93;;
80175;SDS011;69501;42.124;24.722;2023-05-17T05:29:20;11.65;;;7.82;;
80175;SDS011;69501;42.124;24.722;2023-05-17T05:31:46;9.32;;;6.95;;
80175;SDS011;69501;42.124;24.722;2023-05-17T05:34:12;22.90;;;17.02;;
80175;SDS011;69501;42.124;24.722;2023-05-17T05:36:38;37.35;;;28.92;;
80175;SDS011;69501;42.124;24.722;2023-05-17T05:39:03;25.92;;;19.42;;
80175;SDS011;69501;42.124;24.722;2023-05-17T05:41:29;29.92;;;21.05;;
80175;SDS011;69501;42.124;24.722;2023-05-17T05:43:55;28.58;;;22.33;;
80175;SDS011;69501;42.124;24.722;2023-05-17T05:46:21;24.88;;;19.85;;
80175;SDS011;69501;42.124;24.722;2023-05-17T05:48:46;26.65;;;19.08;;
80175;SDS011;69501;42.124;24.722;2023-05-17T05:51:12;23.15;;;17.45;;
80175;SDS011;69501;42.124;24.722;2023-05-17T05:53:38;23.27;;;15.65;;
80175;SDS011;69501;42.124;24.722;2023-05-17T05:56:03;21.17;;;14.32;;
80175;SDS011;69501;42.124;24.722;2023-05-17T05:58:30;17.02;;;12.77;;
80175;SDS011;69501;42.124;24.722;2023-05-17T06:00:56;15.32;;;12.07;;
80175;SDS011;69501;42.124;24.722;2023-05-17T06:03:22;21.15;;;11.27;;
80175;SDS011;69501;42.124;24.722;2023-05-17T06:05:48;19.60;;;11.02;;
80175;SDS011;69501;42.124;24.722;2023-05-17T06:08:14;19.40;;;10.00;;
80175;SDS011;69501;42.124;24.722;2023-05-17T06:10:39;22.83;;;12.40;;
80175;SDS011;69501;42.124;24.722;2023-05-17T06:13:05;12.05;;;10.85;;
80175;SDS011;69501;42.124;24.722;2023-05-17T06:15:31;17.65;;;10.35;;
80175;SDS011;69501;42.124;24.722;2023-05-17T06:17:57;15.88;;;12.75;;
80175;SDS011;69501;42.124;24.722;2023-05-17T06:20:23;23.77;;;13.10;;
80175;SDS011;69501;42.124;24.722;2023-05-17T06:22:48;14.77;;;12.00;;
80175;SDS011;69501;42.124;24.722;2023-05-17T06:25:14;11.73;;;10.13;;
80175;SDS011;69501;42.124;24.722;2023-05-17T06:27:40;12.13;;;9.40;;
80175;SDS011;69501;42.124;24.722;2023-05-17T06:30:06;10.18;;;8.90;;
80175;SDS011;69501;42.124;24.722;2023-05-17T06:32:32;13.32;;;8.35;;
80175;SDS011;69501;42.124;24.722;2023-05-17T06:34:58;16.58;;;9.70;;
80175;SDS011;69501;42.124;24.722;2023-05-17T06:37:24;9.57;;;8.13;;
80175;SDS011;69501;42.124;24.722;2023-05-17T06:39:50;10.05;;;7.72;;
80175;SDS011;69501;42.124;24.722;2023-05-17T06:42:17;13.48;;;9.85;;
80175;SDS011;69501;42.124;24.722;2023-05-17T06:44:43;12.80;;;8.95;;
80175;SDS011;69501;42.124;24.722;2023-05-17T06:47:08;13.48;;;9.43;;
80175;SDS011;69501;42.124;24.722;2023-05-17T06:49:35;11.65;;;8.85;;
80175;SDS011;69501;42.124;24.722;2023-05-17T06:52:01;15.75;;;8.52;;
80175;SDS011;69501;42.124;24.722;2023-05-17T06:54:30;11.45;;;7.88;;
80175;SDS011;69501;42.124;24.722;2023-05-17T06:57:02;11.95;;;8.27;;
80175;SDS011;69501;42.124;24.722;2023-05-17T06:59:28;14.50;;;9.48;;
80175;SDS011;69501;42.124;24.722;2023-05-17T07:01:53;11.10;;;9.30;;
80175;SDS011;69501;42.124;24.722;2023-05-17T07:04:20;20.52;;;11.77;;
80175;SDS011;69501;42.124;24.722;2023-05-17T07:06:45;14.70;;;11.25;;
80175;SDS011;69501;42.124;24.722;2023-05-17T07:09:11;17.00;;;9.73;;
80175;SDS011;69501;42.124;24.722;2023-05-17T07:11:37;11.15;;;10.05;;
80175;SDS011;69501;42.124;24.722;2023-05-17T07:14:03;12.30;;;8.88;;
80175;SDS011;69501;42.124;24.722;2023-05-17T07:16:28;13.65;;;9.13;;
80175;SDS011;69501;42.124;24.722;2023-05-17T07:18:54;13.15;;;9.57;;
80175;SDS011;69501;42.124;24.722;2023-05-17T07:21:21;12.95;;;9.00;;
80175;SDS011;69501;42.124;24.722;2023-05-17T07:23:47;12.68;;;9.35;;
80175;SDS011;69501;42.124;24.722;2023-05-17T07:26:17;24.17;;;12.52;;
80175;SDS011;69501;42.124;24.722;2023-05-17T07:28:43;22.38;;;12.15;;
80175;SDS011;69501;42.124;24.722;2023-05-17T07:31:09;15.35;;;11.60;;
80175;SDS011;69501;42.124;24.722;2023-05-17T07:33:35;13.25;;;9.73;;
80175;SDS011;69501;42.124;24.722;2023-05-17T07:36:01;19.08;;;10.50;;
80175;SDS011;69501;42.124;24.722;2023-05-17T07:38:27;15.52;;;10.07;;
80175;SDS011;69501;42.124;24.722;2023-05-17T07:40:53;14.05;;;8.77;;
80175;SDS011;69501;42.124;24.722;2023-05-17T07:43:18;14.63;;;9.18;;
80175;SDS011;69501;42.124;24.722;2023-05-17T07:45:44;17.13;;;10.88;;
80175;SDS011;69501;42.124;24.722;2023-05-17T07:48:10;14.23;;;10.88;;
80175;SDS011;69501;42.124;24.722;2023-05-17T07:50:35;16.73;;;13.52;;
80175;SDS011;69501;42.124;24.722;2023-05-17T07:53:01;16.33;;;12.63;;
80175;SDS011;69501;42.124;24.722;2023-05-17T07:55:26;19.80;;;12.10;;
80175;SDS011;69501;42.124;24.722;2023-05-17T07:57:52;15.98;;;11.55;;
80175;SDS011;69501;42.124;24.722;2023-05-17T08:00:18;15.63;;;13.20;;
80175;SDS011;69501;42.124;24.722;2023-05-17T08:02:45;18.70;;;12.52;;
80175;SDS011;69501;42.124;24.722;2023-05-17T08:05:11;15.15;;;11.00;;
80175;SDS011;69501;42.124;24.722;2023-05-17T08:07:37;13.77;;;11.23;;
80175;SDS011;69501;42.124;24.722;2023-05-17T08:10:02;16.80;;;11.80;;
80175;SDS011;69501;42.124;24.722;2023-05-17T08:12:28;18.35;;;13.18;;
80175;SDS011;69501;42.124;24.722;2023-05-17T08:14:54;21.35;;;15.43;;
80175;SDS011;69501;42.124;24.722;2023-05-17T08:17:19;19.25;;;14.57;;
80175;SDS011;69501;42.124;24.722;2023-05-17T08:19:46;24.63;;;17.25;;
80175;SDS011;69501;42.124;24.722;2023-05-17T08:22:11;21.52;;;16.10;;
80175;SDS011;69501;42.124;24.722;2023-05-17T08:24:37;31.85;;;17.35;;
80175;SDS011;69501;42.124;24.722;2023-05-17T08:27:03;22.38;;;17.75;;
80175;SDS011;69501;42.124;24.722;2023-05-17T08:29:29;33.55;;;24.50;;
80175;SDS011;69501;42.124;24.722;2023-05-17T08:31:55;34.83;;;25.40;;
80175;SDS011;69501;42.124;24.722;2023-05-17T08:34:20;28.50;;;21.02;;
80175;SDS011;69501;42.124;24.722;2023-05-17T08:36:46;22.27;;;18.05;;
80175;SDS011;69501;42.124;24.722;2023-05-17T08:39:12;19.80;;;13.85;;
80175;SDS011;69501;42.124;24.722;2023-05-17T08:41:38;15.07;;;12.35;;
80175;SDS011;69501;42.124;24.722;2023-05-17T08:44:04;15.43;;;12.57;;
80175;SDS011;69501;42.124;24.722;2023-05-17T08:46:31;18.02;;;12.45;;
80175;SDS011;69501;42.124;24.722;2023-05-17T08:48:58;19.38;;;12.43;;
80175;SDS011;69501;42.124;24.722;2023-05-17T08:51:26;15.20;;;13.57;;
80175;SDS011;69501;42.124;24.722;2023-05-17T08:53:52;15.63;;;12.55;;
80175;SDS011;69501;42.124;24.722;2023-05-17T08:56:19;16.73;;;13.20;;
80175;SDS011;69501;42.124;24.722;2023-05-17T08:58:48;21.15;;;13.10;;
80175;SDS011;69501;42.124;24.722;2023-05-17T09:03:46;16.85;;;12.02;;
80175;SDS011;69501;42.124;24.722;2023-05-17T09:06:15;13.55;;;12.18;;
80175;SDS011;69501;42.124;24.722;2023-05-17T09:08:42;18.85;;;14.10;;
80175;SDS011;69501;42.124;24.722;2023-05-17T09:11:08;18.38;;;13.77;;
80175;SDS011;69501;42.124;24.722;2023-05-17T09:13:34;19.80;;;14.30;;
80175;SDS011;69501;42.124;24.722;2023-05-17T09:16:01;16.33;;;14.38;;
80175;SDS011;69501;42.124;24.722;2023-05-17T09:18:29;18.20;;;14.13;;
80175;SDS011;69501;42.124;24.722;2023-05-17T09:21:00;19.05;;;13.32;;
80175;SDS011;69501;42.124;24.722;2023-05-17T09:23:30;22.67;;;15.27;;
80175;SDS011;69501;42.124;24.722;2023-05-17T09:26:06;20.17;;;14.25;;
80175;SDS011;69501;42.124;24.722;2023-05-17T09:28:38;21.50;;;16.43;;
80175;SDS011;69501;42.124;24.722;2023-05-17T09:31:06;22.73;;;16.27;;
80175;SDS011;69501;42.124;24.722;2023-05-17T09:36:16;26.50;;;15.93;;
80175;SDS011;69501;42.124;24.722;2023-05-17T09:38:50;15.93;;;13.52;;
80175;SDS011;69501;42.124;24.722;2023-05-17T09:41:19;19.23;;;15.32;;
80175;SDS011;69501;42.124;24.722;2023-05-17T09:43:47;23.05;;;17.15;;
80175;SDS011;69501;42.124;24.722;2023-05-17T09:46:13;21.55;;;17.95;;
80175;SDS011;69501;42.124;24.722;2023-05-17T09:48:40;22.15;;;17.73;;
80175;SDS011;69501;42.124;24.722;2023-05-17T09:51:07;19.92;;;15.85;;
80175;SDS011;69501;42.124;24.722;2023-05-17T09:53:33;20.13;;;15.48;;
80175;SDS011;69501;42.124;24.722;2023-05-17T09:56:04;18.25;;;14.50;;
80175;SDS011;69501;42.124;24.722;2023-05-17T09:58:31;16.98;;;14.70;;
80175;SDS011;69501;42.124;24.722;2023-05-17T10:00:59;19.58;;;14.88;;
80175;SDS011;69501;42.124;24.722;2023-05-17T10:03:37;16.23;;;14.63;;
80175;SDS011;69501;42.124;24.722;2023-05-17T10:06:06;19.55;;;13.85;;
80175;SDS011;69501;42.124;24.722;2023-05-17T10:08:34;21.63;;;14.35;;
80175;SDS011;69501;42.124;24.722;2023-05-17T10:11:05;21.23;;;15.77;;
80175;SDS011;69501;42.124;24.722;2023-05-17T10:13:35;19.08;;;15.32;;
80175;SDS011;69501;42.124;24.722;2023-05-17T10:16:06;18.63;;;14.75;;
80175;SDS011;69501;42.124;24.722;2023-05-17T10:18:31;20.02;;;15.68;;
80175;SDS011;69501;42.124;24.722;2023-05-17T10:20:57;23.35;;;18.25;;
80175;SDS011;69501;42.124;24.722;2023-05-17T10:23:25;27.70;;;23.20;;
80175;SDS011;69501;42.124;24.722;2023-05-17T10:25:53;29.15;;;22.05;;
80175;SDS011;69501;42.124;24.722;2023-05-17T10:28:19;26.88;;;18.35;;
80175;SDS011;69501;42.124;24.722;2023-05-17T10:30:46;24.58;;;16.52;;
80175;SDS011;69501;42.124;24.722;2023-05-17T10:33:14;17.67;;;15.25;;
80175;SDS011;69501;42.124;24.722;2023-05-17T10:35:42;19.42;;;15.00;;
80175;SDS011;69501;42.124;24.722;2023-05-17T10:38:10;18.40;;;14.35;;
80175;SDS011;69501;42.124;24.722;2023-05-17T10:40:36;18.90;;;13.30;;
80175;SDS011;69501;42.124;24.722;2023-05-17T10:43:03;17.38;;;13.13;;
80175;SDS011;69501;42.124;24.722;2023-05-17T10:45:31;18.15;;;14.05;;
80175;SDS011;69501;42.124;24.722;2023-05-17T10:47:57;15.15;;;12.30;;
80175;SDS011;69501;42.124;24.722;2023-05-17T10:50:29;16.45;;;11.98;;
80175;SDS011;69501;42.124;24.722;2023-05-17T10:52:57;14.75;;;12.93;;
80175;SDS011;69501;42.124;24.722;2023-05-17T10:55:25;15.48;;;12.68;;
80175;SDS011;69501;42.124;24.722;2023-05-17T11:00:47;16.27;;;13.87;;
80175;SDS011;69501;42.124;24.722;2023-05-17T11:06:27;14.70;;;13.20;;
80175;SDS011;69501;42.124;24.722;2023-05-17T11:08:34;16.35;;;14.32;;
80175;SDS011;69501;42.124;24.722;2023-05-17T11:11:09;18.23;;;14.20;;
80175;SDS011;69501;42.124;24.722;2023-05-17T11:14:09;19.77;;;13.75;;
80175;SDS011;69501;42.124;24.722;2023-05-17T11:16:35;17.23;;;13.75;;
80175;SDS011;69501;42.124;24.722;2023-05-17T11:19:08;17.63;;;14.85;;
80175;SDS011;69501;42.124;24.722;2023-05-17T11:21:35;16.35;;;14.60;;
80175;SDS011;69501;42.124;24.722;2023-05-17T11:24:23;17.95;;;15.70;;
80175;SDS011;69501;42.124;24.722;2023-05-17T11:26:51;20.30;;;15.68;;
80175;SDS011;69501;42.124;24.722;2023-05-17T11:29:19;17.83;;;15.40;;
80175;SDS011;69501;42.124;24.722;2023-05-17T11:31:48;16.02;;;14.38;;
80175;SDS011;69501;42.124;24.722;2023-05-17T11:34:16;21.83;;;17.50;;
80175;SDS011;69501;42.124;24.722;2023-05-17T11:36:52;21.23;;;18.30;;
80175;SDS011;69501;42.124;24.722;2023-05-17T11:39:21;21.55;;;18.67;;
80175;SDS011;69501;42.124;24.722;2023-05-17T11:41:48;18.15;;;16.25;;
80175;SDS011;69501;42.124;24.722;2023-05-17T11:44:22;19.30;;;16.85;;
80175;SDS011;69501;42.124;24.722;2023-05-17T11:46:52;24.63;;;18.20;;
80175;SDS011;69501;42.124;24.722;2023-05-17T11:49:29;23.67;;;19.25;;
80175;SDS011;69501;42.124;24.722;2023-05-17T11:51:58;20.55;;;18.05;;
80175;SDS011;69501;42.124;24.722;2023-05-17T11:54:24;21.50;;;18.95;;
80175;SDS011;69501;42.124;24.722;2023-05-17T11:56:53;21.67;;;19.17;;
80175;SDS011;69501;42.124;24.722;2023-05-17T11:59:20;20.02;;;17.92;;
80175;SDS011;69501;42.124;24.722;2023-05-17T12:01:49;23.35;;;19.52;;
80175;SDS011;69501;42.124;24.722;2023-05-17T12:04:24;28.73;;;22.33;;
80175;SDS011;69501;42.124;24.722;2023-05-17T12:06:51;22.27;;;19.90;;
80175;SDS011;69501;42.124;24.722;2023-05-17T12:09:18;23.65;;;19.10;;
80175;SDS011;69501;42.124;24.722;2023-05-17T12:11:45;21.70;;;19.40;;
80175;SDS011;69501;42.124;24.722;2023-05-17T12:14:17;24.63;;;21.45;;
80175;SDS011;69501;42.124;24.722;2023-05-17T12:16:45;21.52;;;19.23;;
80175;SDS011;69501;42.124;24.722;2023-05-17T12:19:15;23.13;;;18.52;;
80175;SDS011;69501;42.124;24.722;2023-05-17T12:21:45;21.08;;;18.48;;
80175;SDS011;69501;42.124;24.722;2023-05-17T12:24:12;21.35;;;17.85;;
80175;SDS011;69501;42.124;24.722;2023-05-17T12:26:41;19.13;;;15.95;;
80175;SDS011;69501;42.124;24.722;2023-05-17T12:29:11;29.48;;;23.23;;
80175;SDS011;69501;42.124;24.722;2023-05-17T12:31:42;30.58;;;27.20;;
80175;SDS011;69501;42.124;24.722;2023-05-17T12:34:11;37.28;;;30.60;;
80175;SDS011;69501;42.124;24.722;2023-05-17T12:36:38;29.60;;;26.50;;
80175;SDS011;69501;42.124;24.722;2023-05-17T12:39:04;24.40;;;21.83;;
80175;SDS011;69501;42.124;24.722;2023-05-17T12:41:33;23.58;;;19.92;;
80175;SDS011;69501;42.124;24.722;2023-05-17T12:44:00;21.90;;;18.27;;
80175;SDS011;69501;42.124;24.722;2023-05-17T12:46:26;20.70;;;18.42;;
80175;SDS011;69501;42.124;24.722;2023-05-17T12:48:52;21.27;;;19.00;;
80175;SDS011;69501;42.124;24.722;2023-05-17T12:51:19;23.00;;;20.40;;
80175;SDS011;69501;42.124;24.722;2023-05-17T12:53:53;25.92;;;23.13;;
80175;SDS011;69501;42.124;24.722;2023-05-17T12:56:21;23.50;;;20.98;;
80175;SDS011;69501;42.124;24.722;2023-05-17T13:01:36;22.10;;;18.35;;
80175;SDS011;69501;42.124;24.722;2023-05-17T13:04:34;19.75;;;17.63;;
80175;SDS011;69501;42.124;24.722;2023-05-17T13:07:02;21.02;;;17.85;;
80175;SDS011;69501;42.124;24.722;2023-05-17T13:09:29;23.08;;;19.60;;
80175;SDS011;69501;42.124;24.722;2023-05-17T13:11:57;21.83;;;19.45;;
80175;SDS011;69501;42.124;24.722;2023-05-17T13:14:46;20.55;;;18.30;;
80175;SDS011;69501;42.124;24.722;2023-05-17T13:20:03;19.58;;;17.50;;
80175;SDS011;69501;42.124;24.722;2023-05-17T13:22:29;24.55;;;20.58;;
80175;SDS011;69501;42.124;24.722;2023-05-17T13:24:54;21.23;;;18.88;;
80175;SDS011;69501;42.124;24.722;2023-05-17T13:27:20;20.73;;;18.63;;
80175;SDS011;69501;42.124;24.722;2023-05-17T13:29:46;20.67;;;18.67;;
80175;SDS011;69501;42.124;24.722;2023-05-17T13:32:12;21.65;;;19.45;;
80175;SDS011;69501;42.124;24.722;2023-05-17T13:34:38;22.63;;;20.23;;
80175;SDS011;69501;42.124;24.722;2023-05-17T13:37:05;20.63;;;18.42;;
80175;SDS011;69501;42.124;24.722;2023-05-17T13:39:31;23.80;;;18.73;;
80175;SDS011;69501;42.124;24.722;2023-05-17T13:41:57;20.33;;;18.20;;
80175;SDS011;69501;42.124;24.722;2023-05-17T13:44:23;19.27;;;17.45;;
80175;SDS011;69501;42.124;24.722;2023-05-17T13:46:49;18.40;;;16.60;;
80175;SDS011;69501;42.124;24.722;2023-05-17T13:49:15;18.38;;;16.65;;
80175;SDS011;69501;42.124;24.722;2023-05-17T13:51:41;20.10;;;17.95;;
80175;SDS011;69501;42.124;24.722;2023-05-17T13:54:07;20.13;;;15.68;;
80175;SDS011;69501;42.124;24.722;2023-05-17T13:56:33;16.58;;;15.00;;
80175;SDS011;69501;42.124;24.722;2023-05-17T13:59:02;15.68;;;14.23;;
80175;SDS011;69501;42.124;24.722;2023-05-17T14:01:28;16.92;;;15.50;;
80175;SDS011;69501;42.124;24.722;2023-05-17T14:03:54;16.50;;;14.93;;
80175;SDS011;69501;42.124;24.722;2023-05-17T14:06:21;16.80;;;15.13;;
80175;SDS011;69501;42.124;24.722;2023-05-17T14:08:46;17.65;;;15.82;;
80175;SDS011;69501;42.124;24.722;2023-05-17T14:11:12;21.85;;;19.63;;
80175;SDS011;69501;42.124;24.722;2023-05-17T14:13:38;21.20;;;18.33;;
80175;SDS011;69501;42.124;24.722;2023-05-17T14:16:05;17.58;;;15.85;;
80175;SDS011;69501;42.124;24.722;2023-05-17T14:18:30;18.58;;;16.50;;
80175;SDS011;69501;42.124;24.722;2023-05-17T14:20:56;18.98;;;17.17;;
80175;SDS011;69501;42.124;24.722;2023-05-17T14:23:22;17.77;;;16.08;;
80175;SDS011;69501;42.124;24.722;2023-05-17T14:25:48;17.67;;;16.08;;
80175;SDS011;69501;42.124;24.722;2023-05-17T14:28:14;18.23;;;16.42;;
80175;SDS011;69501;42.124;24.722;2023-05-17T14:30:43;18.45;;;16.65;;
80175;SDS011;69501;42.124;24.722;2023-05-17T14:33:09;19.23;;;17.33;;
80175;SDS011;69501;42.124;24.722;2023-05-17T14:35:35;19.20;;;17.02;;
80175;SDS011;69501;42.124;24.722;2023-05-17T14:38:01;19.13;;;17.13;;
80175;SDS011;69501;42.124;24.722;2023-05-17T14:40:26;18.50;;;16.60;;
80175;SDS011;69501;42.124;24.722;2023-05-17T14:42:52;20.20;;;18.15;;
80175;SDS011;69501;42.124;24.722;2023-05-17T14:45:18;21.33;;;19.13;;
80175;SDS011;69501;42.124;24.722;2023-05-17T14:47:44;22.88;;;20.23;;
80175;SDS011;69501;42.124;24.722;2023-05-17T14:50:10;26.85;;;24.08;;